RJCW/WKJ METAR and TAF weather

Enter ICAO airport designator
Station Type Date Time Source
RJCW METAR 2022/07/01 01:00 UTC NOAA

RJCW 010100Z 34006KT 310V010 9999 FEW020 SCT150 BKN/// 18/15 Q1015


Station Type Date Time Source
RJCW Decoded METAR 2022/07/01 01:00 UTC NOAA

Wakkanai Airport, Japan (RJCW) 45-24N 141-48E 11M
Jun 30, 2022 - 09:00 PM EDT / 2022.07.01 0100 UTC
Wind: from the NNW (340 degrees) at 7 MPH (6 KT) (direction variable):0
Visibility: greater than 7 mile(s):0
Sky conditions: mostly cloudy
Temperature: 64 F (18 C)
Dew Point: 59 F (15 C)
Relative Humidity: 82%
Pressure (altimeter): 29.97 in. Hg (1015 hPa)
ob: RJCW 010100Z 34006KT 310V010 9999 FEW020 SCT150 BKN/// 18/15 Q1015
cycle: 1

Station Type Date Time Source
RJCW TAF UTC NOAA

Error!

Example: see airport list